SIA606 WSSS-RKSI
Flight info
| Callsign | SIA606 |
|---|---|
| Flight time | 5h 34m |
| Altitude | 39000 |
| Route | TOMAN3A TOMAN L625 AKMON/K0906F390 L625 ANOKI/N0488F390 L625 ARESI/N0484F400 L625 ABVAR/N0487F390 M646 HCN W4 APU B591 BESTO/N0483F410 B591 DUBAN B576 OLMEN OLMEN2E |
| Aircraft | A359/H-SDE1E2E3GHIJ1J2J3J5M1P2RWXYZ/LB1D1 |
Departure
| Time | 2026-05-04 03:00 |
|---|---|
| Airport | Singapore Changi Airport (WSSS) |
Arrival
| Time | 2026-05-04 08:35 |
|---|---|
| Airport | Incheon International Airport (RKSI) |
| Time | Latitude | Longitude | Altitude | Speed | Heading |
|---|---|---|---|---|---|
| 2026-05-04 02:28 | 1.35760 | 103.99340 | 37 ft | 0 kts | 143° |
| 2026-05-04 02:45 | 1.35778 | 103.99326 | 36 ft | 4 kts | 143° |
| 2026-05-04 02:45 | 1.35797 | 103.99312 | 34 ft | 2 kts | 143° |
| 2026-05-04 02:45 | 1.35813 | 103.99298 | 32 ft | 4 kts | 114° |
| 2026-05-04 02:46 | 1.35818 | 103.99284 | 33 ft | 4 kts | 66° |
| 2026-05-04 02:46 | 1.35817 | 103.99280 | 33 ft | 4 kts | 52° |
| 2026-05-04 02:46 | 1.35835 | 103.99301 | 33 ft | 4 kts | 52° |
| 2026-05-04 02:46 | 1.35844 | 103.99314 | 36 ft | 0 kts | 55° |
| 2026-05-04 02:50 | 1.35845 | 103.99317 | 36 ft | 4 kts | 55° |
| 2026-05-04 02:50 | 1.35870 | 103.99356 | 36 ft | 8 kts | 61° |
| 2026-05-04 02:50 | 1.35879 | 103.99409 | 36 ft | 8 kts | 94° |
| 2026-05-04 02:50 | 1.35872 | 103.99447 | 36 ft | 9 kts | 102° |
| 2026-05-04 02:51 | 1.35823 | 103.99521 | 36 ft | 10 kts | 152° |
| 2026-05-04 02:51 | 1.35777 | 103.99521 | 36 ft | 10 kts | 194° |
| 2026-05-04 02:51 | 1.35707 | 103.99494 | 36 ft | 11 kts | 202° |
| 2026-05-04 02:51 | 1.35602 | 103.99451 | 36 ft | 13 kts | 202° |
| 2026-05-04 02:52 | 1.35544 | 103.99425 | 36 ft | 14 kts | 204° |
| 2026-05-04 02:52 | 1.35452 | 103.99387 | 36 ft | 15 kts | 202° |
| 2026-05-04 02:52 | 1.35353 | 103.99345 | 36 ft | 16 kts | 202° |
| 2026-05-04 02:52 | 1.35248 | 103.99301 | 36 ft | 17 kts | 203° |
| 2026-05-04 02:53 | 1.35096 | 103.99237 | 36 ft | 18 kts | 203° |
| 2026-05-04 02:53 | 1.35017 | 103.99203 | 36 ft | 19 kts | 203° |
| 2026-05-04 02:53 | 1.34891 | 103.99150 | 36 ft | 20 kts | 202° |
| 2026-05-04 02:53 | 1.34761 | 103.99095 | 36 ft | 21 kts | 203° |
| 2026-05-04 02:54 | 1.34625 | 103.99038 | 36 ft | 22 kts | 202° |
| 2026-05-04 02:54 | 1.34483 | 103.98979 | 37 ft | 22 kts | 203° |
| 2026-05-04 02:54 | 1.34337 | 103.98917 | 37 ft | 23 kts | 203° |
| 2026-05-04 02:54 | 1.34187 | 103.98854 | 37 ft | 24 kts | 203° |
| 2026-05-04 02:55 | 1.33874 | 103.98722 | 37 ft | 25 kts | 203° |
| 2026-05-04 02:55 | 1.33714 | 103.98655 | 37 ft | 25 kts | 202° |
| 2026-05-04 02:55 | 1.33547 | 103.98585 | 35 ft | 26 kts | 204° |
| 2026-05-04 02:56 | 1.33381 | 103.98514 | 37 ft | 26 kts | 203° |
| 2026-05-04 02:56 | 1.33231 | 103.98451 | 37 ft | 20 kts | 202° |
| 2026-05-04 02:56 | 1.33136 | 103.98411 | 37 ft | 10 kts | 202° |
| 2026-05-04 02:56 | 1.33083 | 103.98405 | 37 ft | 7 kts | 161° |
| 2026-05-04 02:57 | 1.33045 | 103.98442 | 37 ft | 8 kts | 119° |
| 2026-05-04 02:57 | 1.33019 | 103.98498 | 37 ft | 10 kts | 114° |
| 2026-05-04 02:57 | 1.33028 | 103.98553 | 37 ft | 8 kts | 51° |
| 2026-05-04 02:57 | 1.33074 | 103.98580 | 36 ft | 2 kts | 24° |
| 2026-05-04 02:59 | 1.33075 | 103.98581 | 37 ft | 2 kts | 24° |
| 2026-05-04 02:59 | 1.33271 | 103.98664 | 37 ft | 64 kts | 23° |
| 2026-05-04 02:59 | 1.33874 | 103.98919 | 36 ft | 123 kts | 22° |
| 2026-05-04 03:00 | 1.34823 | 103.99320 | 44 ft | 172 kts | 22° |
| 2026-05-04 03:00 | 1.35939 | 103.99789 | 642 ft | 171 kts | 22° |
| 2026-05-04 03:00 | 1.37046 | 104.00255 | 1257 ft | 177 kts | 23° |
| 2026-05-04 03:00 | 1.38184 | 104.00839 | 1543 ft | 200 kts | 35° |
| 2026-05-04 03:01 | 1.39046 | 104.02005 | 1829 ft | 218 kts | 73° |
| 2026-05-04 03:01 | 1.39197 | 104.03583 | 2126 ft | 241 kts | 91° |
| 2026-05-04 03:01 | 1.39143 | 104.05307 | 2598 ft | 253 kts | 92° |
| 2026-05-04 03:01 | 1.39090 | 104.07085 | 3248 ft | 259 kts | 91° |
| 2026-05-04 03:02 | 1.39050 | 104.08913 | 3880 ft | 265 kts | 91° |
| 2026-05-04 03:02 | 1.39015 | 104.10764 | 4531 ft | 268 kts | 91° |
| 2026-05-04 03:02 | 1.38982 | 104.12644 | 5190 ft | 272 kts | 91° |
| 2026-05-04 03:02 | 1.38950 | 104.14554 | 5854 ft | 276 kts | 91° |
| 2026-05-04 03:03 | 1.38918 | 104.16485 | 6518 ft | 279 kts | 91° |
| 2026-05-04 03:03 | 1.38887 | 104.18406 | 7170 ft | 282 kts | 91° |
| 2026-05-04 03:03 | 1.38856 | 104.20371 | 7854 ft | 284 kts | 91° |
| 2026-05-04 03:03 | 1.38825 | 104.22351 | 8567 ft | 287 kts | 91° |
| 2026-05-04 03:04 | 1.38793 | 104.24364 | 9292 ft | 290 kts | 91° |
| 2026-05-04 03:04 | 1.38761 | 104.26388 | 10006 ft | 293 kts | 91° |
| 2026-05-04 03:04 | 1.38728 | 104.28460 | 10457 ft | 305 kts | 91° |
| 2026-05-04 03:04 | 1.38694 | 104.30623 | 10755 ft | 321 kts | 91° |
| 2026-05-04 03:05 | 1.38657 | 104.32936 | 11060 ft | 337 kts | 91° |
| 2026-05-04 03:05 | 1.38620 | 104.35318 | 11366 ft | 350 kts | 91° |
| 2026-05-04 03:05 | 1.38580 | 104.37795 | 11666 ft | 362 kts | 91° |
| 2026-05-04 03:05 | 1.38541 | 104.40311 | 12088 ft | 369 kts | 91° |
| 2026-05-04 03:06 | 1.38500 | 104.42899 | 12575 ft | 374 kts | 91° |
| 2026-05-04 03:06 | 1.38458 | 104.45512 | 13076 ft | 378 kts | 91° |
| 2026-05-04 03:06 | 1.38416 | 104.48142 | 13581 ft | 381 kts | 91° |
| 2026-05-04 03:06 | 1.38374 | 104.50796 | 14050 ft | 384 kts | 91° |
| 2026-05-04 03:07 | 1.38331 | 104.53481 | 14504 ft | 386 kts | 91° |
| 2026-05-04 03:07 | 1.38289 | 104.56170 | 14987 ft | 388 kts | 91° |
| 2026-05-04 03:07 | 1.38245 | 104.58878 | 15456 ft | 389 kts | 91° |
| 2026-05-04 03:07 | 1.38202 | 104.61583 | 15916 ft | 391 kts | 91° |
| 2026-05-04 03:08 | 1.38159 | 104.64304 | 16378 ft | 393 kts | 91° |
| 2026-05-04 03:08 | 1.38115 | 104.67054 | 16827 ft | 395 kts | 91° |
| 2026-05-04 03:08 | 1.38071 | 104.69802 | 17277 ft | 397 kts | 91° |
| 2026-05-04 03:08 | 1.38027 | 104.72561 | 17734 ft | 399 kts | 91° |
| 2026-05-04 03:09 | 1.37983 | 104.75345 | 18163 ft | 400 kts | 91° |
| 2026-05-04 03:09 | 1.37938 | 104.78101 | 18528 ft | 403 kts | 91° |
| 2026-05-04 03:09 | 1.37893 | 104.80915 | 18872 ft | 405 kts | 91° |
| 2026-05-04 03:09 | 1.37848 | 104.83745 | 19209 ft | 408 kts | 91° |
| 2026-05-04 03:10 | 1.37803 | 104.86581 | 19550 ft | 411 kts | 91° |
| 2026-05-04 03:10 | 1.37757 | 104.89452 | 19904 ft | 413 kts | 91° |
| 2026-05-04 03:10 | 1.37710 | 104.92327 | 20253 ft | 415 kts | 91° |
| 2026-05-04 03:10 | 1.37664 | 104.95223 | 20598 ft | 418 kts | 91° |
| 2026-05-04 03:11 | 1.37617 | 104.98143 | 20946 ft | 420 kts | 91° |
| 2026-05-04 03:11 | 1.37570 | 105.01078 | 21289 ft | 423 kts | 91° |
| 2026-05-04 03:11 | 1.37522 | 105.04016 | 21655 ft | 425 kts | 91° |
| 2026-05-04 03:11 | 1.37474 | 105.06994 | 22015 ft | 428 kts | 91° |
| 2026-05-04 03:12 | 1.37427 | 105.09942 | 22359 ft | 430 kts | 91° |
| 2026-05-04 03:12 | 1.37378 | 105.12937 | 22720 ft | 432 kts | 91° |
| 2026-05-04 03:12 | 1.37330 | 105.15952 | 23081 ft | 435 kts | 91° |
| 2026-05-04 03:12 | 1.37281 | 105.18986 | 23421 ft | 437 kts | 91° |
| 2026-05-04 03:13 | 1.37231 | 105.22023 | 23730 ft | 440 kts | 91° |
| 2026-05-04 03:13 | 1.37181 | 105.25107 | 24016 ft | 442 kts | 91° |
| 2026-05-04 03:13 | 1.37131 | 105.28191 | 24310 ft | 444 kts | 91° |
| 2026-05-04 03:13 | 1.37082 | 105.31258 | 24613 ft | 446 kts | 91° |
| 2026-05-04 03:14 | 1.37031 | 105.34375 | 24933 ft | 449 kts | 91° |
| 2026-05-04 03:14 | 1.36980 | 105.37493 | 25250 ft | 451 kts | 91° |
| 2026-05-04 03:14 | 1.36929 | 105.40639 | 25578 ft | 453 kts | 91° |
| 2026-05-04 03:14 | 1.36878 | 105.43802 | 25918 ft | 456 kts | 91° |
| 2026-05-04 03:15 | 1.36826 | 105.46969 | 26271 ft | 458 kts | 91° |
| 2026-05-04 03:15 | 1.36774 | 105.50169 | 26635 ft | 461 kts | 91° |
| 2026-05-04 03:15 | 1.36722 | 105.53390 | 27004 ft | 464 kts | 91° |
| 2026-05-04 03:15 | 1.36669 | 105.56623 | 27361 ft | 466 kts | 91° |
| 2026-05-04 03:16 | 1.36616 | 105.59877 | 27728 ft | 469 kts | 91° |
| 2026-05-04 03:16 | 1.36562 | 105.63113 | 28087 ft | 472 kts | 91° |
| 2026-05-04 03:16 | 1.36511 | 105.66393 | 28450 ft | 474 kts | 91° |
| 2026-05-04 03:16 | 1.36667 | 105.69709 | 28777 ft | 478 kts | 83° |
| 2026-05-04 03:17 | 1.37352 | 105.72974 | 29113 ft | 481 kts | 73° |
| 2026-05-04 03:17 | 1.38598 | 105.76087 | 29452 ft | 485 kts | 64° |
| 2026-05-04 03:17 | 1.40383 | 105.78967 | 29752 ft | 490 kts | 54° |
| 2026-05-04 03:17 | 1.42699 | 105.81486 | 30042 ft | 494 kts | 42° |
| 2026-05-04 03:18 | 1.45434 | 105.83580 | 30288 ft | 498 kts | 34° |
| 2026-05-04 03:18 | 1.48373 | 105.85340 | 30567 ft | 500 kts | 30° |
| 2026-05-04 03:18 | 1.51469 | 105.86952 | 30838 ft | 502 kts | 27° |
| 2026-05-04 03:18 | 1.54609 | 105.88495 | 31090 ft | 505 kts | 27° |
| 2026-05-04 03:19 | 1.57777 | 105.90040 | 31349 ft | 506 kts | 27° |
| 2026-05-04 03:19 | 1.60939 | 105.91604 | 31595 ft | 508 kts | 27° |
| 2026-05-04 03:19 | 1.64093 | 105.93193 | 31847 ft | 509 kts | 28° |
| 2026-05-04 03:19 | 1.67246 | 105.94806 | 32193 ft | 508 kts | 28° |
| 2026-05-04 03:20 | 1.70381 | 105.96424 | 32547 ft | 507 kts | 28° |
| 2026-05-04 03:20 | 1.73517 | 105.98049 | 32884 ft | 506 kts | 28° |
| 2026-05-04 03:20 | 1.76644 | 105.99671 | 33225 ft | 506 kts | 28° |
| 2026-05-04 03:20 | 1.79756 | 106.01286 | 33544 ft | 505 kts | 28° |
| 2026-05-04 03:21 | 1.82871 | 106.02902 | 33886 ft | 504 kts | 28° |
| 2026-05-04 03:21 | 1.85985 | 106.04516 | 34189 ft | 503 kts | 28° |
| 2026-05-04 03:21 | 1.89084 | 106.06121 | 34486 ft | 502 kts | 28° |
| 2026-05-04 03:21 | 1.92179 | 106.07724 | 34763 ft | 500 kts | 28° |
| 2026-05-04 03:22 | 1.95257 | 106.09324 | 35062 ft | 499 kts | 28° |
| 2026-05-04 03:22 | 1.98335 | 106.10917 | 35341 ft | 498 kts | 28° |
| 2026-05-04 03:22 | 2.01416 | 106.12507 | 35629 ft | 496 kts | 28° |
| 2026-05-04 03:22 | 2.04473 | 106.14085 | 35902 ft | 495 kts | 28° |
| 2026-05-04 03:23 | 2.07531 | 106.15665 | 36191 ft | 494 kts | 28° |
| 2026-05-04 03:23 | 2.10584 | 106.17242 | 36455 ft | 493 kts | 28° |
| 2026-05-04 03:23 | 2.13623 | 106.18814 | 36714 ft | 492 kts | 28° |
| 2026-05-04 03:23 | 2.16654 | 106.20382 | 36961 ft | 491 kts | 28° |
| 2026-05-04 03:24 | 2.19689 | 106.21952 | 37224 ft | 490 kts | 28° |
| 2026-05-04 03:24 | 2.22717 | 106.23519 | 37476 ft | 488 kts | 28° |
| 2026-05-04 03:24 | 2.25686 | 106.25056 | 37716 ft | 487 kts | 28° |
| 2026-05-04 03:24 | 2.28699 | 106.26614 | 37955 ft | 486 kts | 28° |
| 2026-05-04 03:25 | 2.31701 | 106.28168 | 38194 ft | 485 kts | 28° |
| 2026-05-04 03:25 | 2.34700 | 106.29720 | 38402 ft | 484 kts | 28° |
| 2026-05-04 03:25 | 2.37692 | 106.31269 | 38626 ft | 483 kts | 28° |
| 2026-05-04 03:25 | 2.40683 | 106.32816 | 38805 ft | 482 kts | 28° |
| 2026-05-04 03:26 | 2.43668 | 106.34361 | 38913 ft | 483 kts | 28° |
| 2026-05-04 03:26 | 2.49653 | 106.37460 | 38939 ft | 485 kts | 28° |
| 2026-05-04 03:27 | 2.55650 | 106.40565 | 38941 ft | 484 kts | 28° |
| 2026-05-04 03:27 | 2.61592 | 106.43644 | 38938 ft | 484 kts | 28° |
| 2026-05-04 03:28 | 2.67580 | 106.46744 | 38938 ft | 484 kts | 28° |
| 2026-05-04 03:28 | 2.73581 | 106.49852 | 38939 ft | 485 kts | 28° |
| 2026-05-04 03:29 | 2.79572 | 106.52962 | 38941 ft | 485 kts | 28° |
| 2026-05-04 03:29 | 2.85551 | 106.56056 | 38936 ft | 485 kts | 28° |
| 2026-05-04 03:30 | 2.91555 | 106.59161 | 38939 ft | 485 kts | 28° |
| 2026-05-04 03:30 | 2.97527 | 106.62249 | 38936 ft | 485 kts | 28° |
| 2026-05-04 03:31 | 3.03534 | 106.65357 | 38937 ft | 485 kts | 28° |
| 2026-05-04 03:31 | 3.09536 | 106.68463 | 38935 ft | 485 kts | 28° |
| 2026-05-04 03:32 | 3.15534 | 106.71569 | 38934 ft | 485 kts | 28° |
| 2026-05-04 03:32 | 3.21519 | 106.74668 | 38932 ft | 485 kts | 28° |
| 2026-05-04 03:33 | 3.27526 | 106.77780 | 38937 ft | 485 kts | 28° |
| 2026-05-04 03:33 | 3.33516 | 106.80882 | 38935 ft | 485 kts | 28° |
| 2026-05-04 03:34 | 3.39505 | 106.83985 | 38936 ft | 485 kts | 28° |
| 2026-05-04 03:34 | 3.45505 | 106.87093 | 38937 ft | 485 kts | 28° |
| 2026-05-04 03:35 | 3.51468 | 106.90183 | 38936 ft | 485 kts | 29° |
| 2026-05-04 03:35 | 3.56394 | 106.92875 | 38936 ft | 484 kts | 35° |
| 2026-05-04 03:36 | 3.62878 | 106.97324 | 38933 ft | 483 kts | 36° |
| 2026-05-04 03:36 | 3.68366 | 107.01212 | 38934 ft | 483 kts | 37° |
| 2026-05-04 03:37 | 3.73849 | 107.05101 | 38936 ft | 483 kts | 37° |
| 2026-05-04 03:37 | 3.78407 | 107.08326 | 38934 ft | 483 kts | 36° |
| 2026-05-04 03:38 | 3.83896 | 107.12203 | 38935 ft | 483 kts | 36° |
| 2026-05-04 03:38 | 3.89387 | 107.16082 | 38930 ft | 483 kts | 36° |
| 2026-05-04 03:39 | 3.94876 | 107.19960 | 38933 ft | 483 kts | 36° |
| 2026-05-04 03:39 | 4.00370 | 107.23842 | 38931 ft | 482 kts | 36° |
| 2026-05-04 03:40 | 4.05866 | 107.27727 | 38934 ft | 482 kts | 36° |
| 2026-05-04 03:40 | 4.11317 | 107.31581 | 38931 ft | 482 kts | 36° |
| 2026-05-04 03:41 | 4.16780 | 107.35443 | 38932 ft | 482 kts | 36° |
| 2026-05-04 03:41 | 4.22258 | 107.39317 | 38930 ft | 482 kts | 36° |
| 2026-05-04 03:42 | 4.27764 | 107.43211 | 38932 ft | 482 kts | 36° |
| 2026-05-04 03:42 | 4.33213 | 107.47067 | 38930 ft | 481 kts | 36° |
| 2026-05-04 03:43 | 4.38690 | 107.50942 | 38932 ft | 481 kts | 36° |
| 2026-05-04 03:43 | 4.44167 | 107.54818 | 38928 ft | 481 kts | 36° |
| 2026-05-04 03:44 | 4.49625 | 107.58681 | 38930 ft | 481 kts | 36° |
| 2026-05-04 03:44 | 4.55090 | 107.62550 | 38925 ft | 481 kts | 36° |
| 2026-05-04 03:45 | 4.60563 | 107.66426 | 38929 ft | 481 kts | 36° |
| 2026-05-04 03:45 | 4.65999 | 107.70275 | 38930 ft | 481 kts | 36° |
| 2026-05-04 03:46 | 4.71475 | 107.74154 | 38930 ft | 481 kts | 36° |
| 2026-05-04 03:46 | 4.76948 | 107.78032 | 38926 ft | 481 kts | 36° |
| 2026-05-04 03:47 | 4.82422 | 107.81911 | 38929 ft | 481 kts | 36° |
| 2026-05-04 03:47 | 4.87869 | 107.85772 | 38930 ft | 481 kts | 36° |
| 2026-05-04 03:48 | 4.93349 | 107.89656 | 38930 ft | 481 kts | 36° |
| 2026-05-04 03:48 | 4.98820 | 107.93536 | 38929 ft | 481 kts | 36° |
| 2026-05-04 03:49 | 5.04270 | 107.97381 | 38931 ft | 481 kts | 36° |
| 2026-05-04 03:49 | 5.09763 | 108.01229 | 38932 ft | 481 kts | 36° |
| 2026-05-04 03:50 | 5.15258 | 108.05082 | 38930 ft | 481 kts | 36° |
| 2026-05-04 03:50 | 5.20756 | 108.08944 | 38929 ft | 481 kts | 36° |
| 2026-05-04 03:51 | 5.26191 | 108.12764 | 38926 ft | 481 kts | 36° |
| 2026-05-04 03:51 | 5.31692 | 108.16632 | 38930 ft | 481 kts | 36° |
| 2026-05-04 03:52 | 5.37185 | 108.20495 | 38929 ft | 481 kts | 36° |
| 2026-05-04 03:52 | 5.42672 | 108.24355 | 38927 ft | 481 kts | 36° |
| 2026-05-04 03:53 | 5.48123 | 108.28189 | 38930 ft | 481 kts | 36° |
| 2026-05-04 03:53 | 5.53608 | 108.32049 | 38928 ft | 481 kts | 36° |
| 2026-05-04 03:54 | 5.59095 | 108.35911 | 38928 ft | 481 kts | 36° |
| 2026-05-04 03:54 | 5.64588 | 108.39778 | 38926 ft | 481 kts | 36° |
| 2026-05-04 03:55 | 5.70039 | 108.43616 | 38927 ft | 481 kts | 36° |
| 2026-05-04 03:55 | 5.75514 | 108.47473 | 38928 ft | 481 kts | 36° |
| 2026-05-04 03:56 | 5.80986 | 108.51328 | 38929 ft | 481 kts | 36° |
| 2026-05-04 03:56 | 5.86463 | 108.55188 | 38927 ft | 480 kts | 36° |
| 2026-05-04 03:57 | 5.91941 | 108.59048 | 38928 ft | 480 kts | 36° |
| 2026-05-04 03:57 | 5.97409 | 108.62904 | 38931 ft | 480 kts | 36° |
| 2026-05-04 03:58 | 6.05578 | 108.68664 | 38926 ft | 480 kts | 36° |
| 2026-05-04 03:58 | 6.11041 | 108.72518 | 38927 ft | 479 kts | 36° |
| 2026-05-04 03:59 | 6.16508 | 108.76376 | 38926 ft | 479 kts | 36° |
| 2026-05-04 03:59 | 6.21960 | 108.80224 | 38925 ft | 478 kts | 37° |
| 2026-05-04 04:00 | 6.27408 | 108.84070 | 38925 ft | 478 kts | 37° |
| 2026-05-04 04:00 | 6.32843 | 108.87908 | 38924 ft | 477 kts | 37° |
| 2026-05-04 04:01 | 6.38247 | 108.91726 | 38920 ft | 476 kts | 37° |
| 2026-05-04 04:01 | 6.43666 | 108.95554 | 38924 ft | 476 kts | 37° |
| 2026-05-04 04:02 | 6.49056 | 108.99363 | 38924 ft | 475 kts | 37° |
| 2026-05-04 04:02 | 6.54475 | 109.03194 | 38924 ft | 475 kts | 37° |
| 2026-05-04 04:03 | 6.59896 | 109.07028 | 38920 ft | 475 kts | 37° |
| 2026-05-04 04:03 | 6.65307 | 109.10855 | 38922 ft | 475 kts | 37° |
| 2026-05-04 04:04 | 6.70710 | 109.14677 | 38919 ft | 475 kts | 37° |
| 2026-05-04 04:04 | 6.76119 | 109.18506 | 38922 ft | 475 kts | 37° |
| 2026-05-04 04:05 | 6.81492 | 109.22310 | 38924 ft | 474 kts | 37° |
| 2026-05-04 04:05 | 6.86906 | 109.26143 | 38927 ft | 474 kts | 37° |
| 2026-05-04 04:06 | 6.92311 | 109.29972 | 38923 ft | 475 kts | 37° |
| 2026-05-04 04:06 | 6.97681 | 109.33777 | 38922 ft | 475 kts | 37° |
| 2026-05-04 04:07 | 7.03086 | 109.37608 | 38923 ft | 475 kts | 37° |
| 2026-05-04 04:07 | 7.08506 | 109.41450 | 38918 ft | 475 kts | 37° |
| 2026-05-04 04:08 | 7.13908 | 109.45281 | 38912 ft | 475 kts | 37° |
| 2026-05-04 04:08 | 7.19293 | 109.49100 | 38922 ft | 475 kts | 37° |
| 2026-05-04 04:09 | 7.24703 | 109.52939 | 38920 ft | 475 kts | 37° |
| 2026-05-04 04:09 | 7.30110 | 109.56777 | 38919 ft | 475 kts | 36° |
| 2026-05-04 04:10 | 7.35483 | 109.60592 | 38919 ft | 475 kts | 36° |
| 2026-05-04 04:10 | 7.40898 | 109.64438 | 38919 ft | 475 kts | 36° |
| 2026-05-04 04:11 | 7.46300 | 109.68276 | 38922 ft | 475 kts | 36° |
| 2026-05-04 04:11 | 7.51665 | 109.72089 | 38923 ft | 475 kts | 36° |
| 2026-05-04 04:12 | 7.57106 | 109.75956 | 38923 ft | 475 kts | 36° |
| 2026-05-04 04:12 | 7.62474 | 109.79773 | 38921 ft | 475 kts | 36° |
| 2026-05-04 04:13 | 7.67877 | 109.83616 | 38919 ft | 475 kts | 36° |
| 2026-05-04 04:13 | 7.73284 | 109.87463 | 38926 ft | 475 kts | 36° |
| 2026-05-04 04:14 | 7.78659 | 109.91288 | 38923 ft | 475 kts | 36° |
| 2026-05-04 04:14 | 7.84071 | 109.95142 | 38924 ft | 475 kts | 36° |
| 2026-05-04 04:15 | 7.89491 | 109.99002 | 38923 ft | 475 kts | 36° |
| 2026-05-04 04:15 | 7.94880 | 110.02841 | 38923 ft | 476 kts | 36° |
| 2026-05-04 04:16 | 8.00300 | 110.06704 | 38923 ft | 476 kts | 36° |
| 2026-05-04 04:16 | 8.05717 | 110.10566 | 38923 ft | 476 kts | 36° |
| 2026-05-04 04:17 | 8.11136 | 110.14430 | 38923 ft | 476 kts | 36° |
| 2026-05-04 04:17 | 8.16510 | 110.18265 | 38922 ft | 477 kts | 36° |
| 2026-05-04 04:18 | 8.21936 | 110.22137 | 38923 ft | 477 kts | 36° |
| 2026-05-04 04:18 | 8.27344 | 110.26022 | 38921 ft | 476 kts | 36° |
| 2026-05-04 04:19 | 8.32741 | 110.29915 | 38920 ft | 476 kts | 36° |
| 2026-05-04 04:19 | 8.38116 | 110.33791 | 38923 ft | 477 kts | 36° |
| 2026-05-04 04:20 | 8.43519 | 110.37686 | 38925 ft | 477 kts | 36° |
| 2026-05-04 04:20 | 8.48930 | 110.41587 | 38921 ft | 478 kts | 36° |
| 2026-05-04 04:21 | 8.54354 | 110.45499 | 38924 ft | 478 kts | 36° |
| 2026-05-04 04:21 | 8.58863 | 110.48752 | 38925 ft | 479 kts | 36° |
| 2026-05-04 04:22 | 8.64288 | 110.52667 | 38923 ft | 479 kts | 36° |
| 2026-05-04 04:22 | 8.70595 | 110.57220 | 38927 ft | 479 kts | 36° |
| 2026-05-04 04:23 | 8.75111 | 110.60483 | 38924 ft | 480 kts | 36° |
| 2026-05-04 04:23 | 8.80556 | 110.64416 | 38927 ft | 480 kts | 36° |
| 2026-05-04 04:24 | 8.85995 | 110.68348 | 38926 ft | 480 kts | 36° |
| 2026-05-04 04:24 | 8.91444 | 110.72287 | 38925 ft | 480 kts | 36° |
| 2026-05-04 04:25 | 8.96853 | 110.76199 | 38927 ft | 481 kts | 36° |
| 2026-05-04 04:25 | 9.02311 | 110.80149 | 38929 ft | 481 kts | 36° |
| 2026-05-04 04:26 | 9.07772 | 110.84101 | 38928 ft | 482 kts | 36° |
| 2026-05-04 04:26 | 9.13202 | 110.88034 | 38929 ft | 482 kts | 36° |
| 2026-05-04 04:27 | 9.18667 | 110.91993 | 38927 ft | 483 kts | 36° |
| 2026-05-04 04:27 | 9.24131 | 110.95953 | 38930 ft | 483 kts | 36° |
| 2026-05-04 04:28 | 9.29571 | 110.99897 | 38926 ft | 483 kts | 36° |
| 2026-05-04 04:28 | 9.35044 | 111.03866 | 38930 ft | 483 kts | 36° |
| 2026-05-04 04:29 | 9.40509 | 111.07831 | 38928 ft | 483 kts | 36° |
| 2026-05-04 04:29 | 9.45977 | 111.11800 | 38932 ft | 483 kts | 36° |
| 2026-05-04 04:30 | 9.51412 | 111.15747 | 38931 ft | 483 kts | 36° |
| 2026-05-04 04:30 | 9.56882 | 111.19722 | 38929 ft | 483 kts | 36° |
| 2026-05-04 04:31 | 9.62353 | 111.23698 | 38925 ft | 483 kts | 36° |
| 2026-05-04 04:31 | 9.67826 | 111.27675 | 38926 ft | 483 kts | 36° |
| 2026-05-04 04:32 | 9.73254 | 111.31622 | 38933 ft | 483 kts | 36° |
| 2026-05-04 04:32 | 9.78725 | 111.35603 | 38927 ft | 483 kts | 36° |
| 2026-05-04 04:33 | 9.84192 | 111.39582 | 38930 ft | 483 kts | 36° |
| 2026-05-04 04:33 | 9.89654 | 111.43560 | 38931 ft | 483 kts | 36° |
| 2026-05-04 04:34 | 9.95086 | 111.47517 | 38930 ft | 483 kts | 36° |
| 2026-05-04 04:34 | 10.00562 | 111.51508 | 38933 ft | 483 kts | 36° |
| 2026-05-04 04:35 | 10.05999 | 111.55472 | 38930 ft | 484 kts | 36° |
| 2026-05-04 04:35 | 10.11460 | 111.59456 | 38933 ft | 484 kts | 36° |
| 2026-05-04 04:36 | 10.16930 | 111.63447 | 38932 ft | 484 kts | 36° |
| 2026-05-04 04:36 | 10.22406 | 111.67445 | 38930 ft | 484 kts | 36° |
| 2026-05-04 04:37 | 10.33352 | 111.75443 | 38918 ft | 485 kts | 36° |
| 2026-05-04 04:38 | 10.38796 | 111.79423 | 38933 ft | 485 kts | 36° |
| 2026-05-04 04:38 | 10.44282 | 111.83437 | 38933 ft | 484 kts | 36° |
| 2026-05-04 04:39 | 10.49725 | 111.87419 | 38922 ft | 484 kts | 36° |
| 2026-05-04 04:39 | 10.55192 | 111.91421 | 38926 ft | 483 kts | 35° |
| 2026-05-04 04:40 | 10.60655 | 111.95422 | 38929 ft | 482 kts | 35° |
| 2026-05-04 04:40 | 10.66072 | 111.99390 | 38926 ft | 482 kts | 35° |
| 2026-05-04 04:41 | 10.71518 | 112.03382 | 38923 ft | 482 kts | 35° |
| 2026-05-04 04:41 | 10.76967 | 112.07377 | 38927 ft | 482 kts | 35° |
| 2026-05-04 04:42 | 10.82414 | 112.11373 | 38928 ft | 482 kts | 35° |
| 2026-05-04 04:42 | 10.87868 | 112.15376 | 38926 ft | 482 kts | 36° |
| 2026-05-04 04:43 | 10.93275 | 112.19347 | 38925 ft | 482 kts | 36° |
| 2026-05-04 04:43 | 10.98720 | 112.23351 | 38928 ft | 482 kts | 35° |
| 2026-05-04 04:44 | 11.04178 | 112.27336 | 38925 ft | 483 kts | 35° |
| 2026-05-04 04:44 | 11.09643 | 112.31325 | 38929 ft | 483 kts | 35° |
| 2026-05-04 04:45 | 11.15073 | 112.35295 | 38924 ft | 483 kts | 36° |
| 2026-05-04 04:47 | 11.34159 | 112.49281 | 38923 ft | 484 kts | 36° |
| 2026-05-04 04:47 | 11.39629 | 112.53293 | 38923 ft | 484 kts | 36° |
| 2026-05-04 04:48 | 11.45112 | 112.57316 | 38924 ft | 484 kts | 36° |
| 2026-05-04 04:49 | 11.58783 | 112.67381 | 38922 ft | 487 kts | 36° |
| 2026-05-04 04:49 | 11.64298 | 112.71447 | 38924 ft | 489 kts | 36° |
| 2026-05-04 04:50 | 11.69815 | 112.75516 | 38924 ft | 490 kts | 36° |
| 2026-05-04 04:50 | 11.75345 | 112.79598 | 38922 ft | 491 kts | 36° |
| 2026-05-04 04:51 | 11.80895 | 112.83696 | 38927 ft | 491 kts | 36° |
| 2026-05-04 04:51 | 11.86394 | 112.87758 | 38928 ft | 491 kts | 36° |
| 2026-05-04 04:52 | 11.91938 | 112.91855 | 38929 ft | 491 kts | 35° |
| 2026-05-04 04:52 | 11.97480 | 112.95953 | 38930 ft | 491 kts | 35° |
| 2026-05-04 04:53 | 12.03012 | 113.00046 | 38928 ft | 492 kts | 36° |
| 2026-05-04 04:53 | 12.08577 | 113.04165 | 38928 ft | 493 kts | 35° |
| 2026-05-04 04:54 | 12.14143 | 113.08287 | 38926 ft | 494 kts | 35° |
| 2026-05-04 04:54 | 12.19675 | 113.12387 | 38928 ft | 494 kts | 35° |
| 2026-05-04 04:55 | 12.25250 | 113.16521 | 38929 ft | 494 kts | 35° |
| 2026-05-04 04:55 | 12.30809 | 113.20645 | 38928 ft | 493 kts | 35° |
| 2026-05-04 04:56 | 12.36373 | 113.24775 | 38930 ft | 493 kts | 35° |
| 2026-05-04 04:56 | 12.41899 | 113.28880 | 38930 ft | 494 kts | 35° |
| 2026-05-04 04:57 | 12.47495 | 113.33024 | 38928 ft | 496 kts | 35° |
| 2026-05-04 04:57 | 12.53090 | 113.37169 | 38927 ft | 497 kts | 35° |
| 2026-05-04 04:58 | 12.58694 | 113.41326 | 38924 ft | 498 kts | 35° |
| 2026-05-04 04:58 | 12.64276 | 113.45472 | 38926 ft | 498 kts | 35° |
| 2026-05-04 04:59 | 12.69893 | 113.49648 | 38929 ft | 498 kts | 35° |
| 2026-05-04 04:59 | 12.75516 | 113.53828 | 38930 ft | 499 kts | 35° |
| 2026-05-04 05:00 | 12.81114 | 113.57991 | 38931 ft | 499 kts | 35° |
| 2026-05-04 05:01 | 12.89547 | 113.64269 | 38923 ft | 500 kts | 35° |
| 2026-05-04 05:01 | 12.95178 | 113.68463 | 38936 ft | 500 kts | 35° |
| 2026-05-04 05:02 | 13.00817 | 113.72667 | 38922 ft | 501 kts | 35° |
| 2026-05-04 05:02 | 13.06459 | 113.76874 | 38923 ft | 501 kts | 35° |
| 2026-05-04 05:03 | 13.12061 | 113.81055 | 38946 ft | 501 kts | 35° |
| 2026-05-04 05:04 | 13.23320 | 113.89463 | 38928 ft | 501 kts | 34° |
| 2026-05-04 05:04 | 13.28956 | 113.93677 | 38940 ft | 501 kts | 34° |
| 2026-05-04 05:06 | 13.51485 | 114.10542 | 38932 ft | 501 kts | 35° |
| 2026-05-04 05:07 | 13.57094 | 114.14747 | 38933 ft | 501 kts | 35° |
| 2026-05-04 05:07 | 13.62742 | 114.18983 | 38936 ft | 501 kts | 35° |
| 2026-05-04 05:09 | 13.87168 | 114.37339 | 38941 ft | 502 kts | 35° |
| 2026-05-04 05:10 | 13.92810 | 114.41585 | 38943 ft | 502 kts | 35° |
| 2026-05-04 05:10 | 13.98229 | 114.46068 | 38948 ft | 503 kts | 44° |
| 2026-05-04 05:11 | 14.03114 | 114.51212 | 38944 ft | 503 kts | 45° |
| 2026-05-04 05:11 | 14.07924 | 114.56473 | 38940 ft | 503 kts | 46° |
| 2026-05-04 05:12 | 14.12728 | 114.61743 | 38940 ft | 503 kts | 45° |
| 2026-05-04 05:12 | 14.17497 | 114.66956 | 38944 ft | 503 kts | 45° |
| 2026-05-04 05:13 | 14.22303 | 114.72202 | 38944 ft | 503 kts | 45° |
| 2026-05-04 05:13 | 14.27117 | 114.77455 | 38943 ft | 503 kts | 45° |
| 2026-05-04 05:14 | 14.31896 | 114.82677 | 38945 ft | 503 kts | 46° |
| 2026-05-04 05:14 | 14.36710 | 114.87942 | 38945 ft | 503 kts | 46° |
| 2026-05-04 05:15 | 14.41520 | 114.93205 | 38944 ft | 503 kts | 46° |
| 2026-05-04 05:15 | 14.46316 | 114.98457 | 38947 ft | 503 kts | 46° |
| 2026-05-04 05:16 | 14.51095 | 115.03693 | 38945 ft | 503 kts | 46° |
| 2026-05-04 05:16 | 14.55894 | 115.08954 | 38948 ft | 503 kts | 46° |
| 2026-05-04 05:17 | 14.60689 | 115.14214 | 38948 ft | 503 kts | 46° |
| 2026-05-04 05:17 | 14.65500 | 115.19496 | 38947 ft | 503 kts | 46° |
| 2026-05-04 05:18 | 14.70273 | 115.24738 | 38947 ft | 504 kts | 46° |
| 2026-05-04 05:18 | 14.75088 | 115.30031 | 38945 ft | 504 kts | 46° |
| 2026-05-04 05:19 | 14.79893 | 115.35318 | 38947 ft | 505 kts | 46° |
| 2026-05-04 05:19 | 14.84705 | 115.40616 | 38947 ft | 505 kts | 46° |
| 2026-05-04 05:20 | 14.89500 | 115.45899 | 38945 ft | 505 kts | 46° |
| 2026-05-04 05:20 | 14.94286 | 115.51176 | 38945 ft | 505 kts | 46° |
| 2026-05-04 05:21 | 14.99099 | 115.56485 | 38949 ft | 506 kts | 46° |
| 2026-05-04 05:21 | 15.03904 | 115.61790 | 38945 ft | 506 kts | 46° |
| 2026-05-04 05:22 | 15.08722 | 115.67114 | 38945 ft | 506 kts | 46° |
| 2026-05-04 05:22 | 15.13533 | 115.72432 | 38944 ft | 506 kts | 46° |
| 2026-05-04 05:23 | 15.18322 | 115.77730 | 38947 ft | 507 kts | 46° |
| 2026-05-04 05:23 | 15.23146 | 115.83071 | 38948 ft | 507 kts | 46° |
| 2026-05-04 05:24 | 15.27971 | 115.88417 | 38945 ft | 508 kts | 46° |
| 2026-05-04 05:24 | 15.32807 | 115.93779 | 38943 ft | 509 kts | 46° |
| 2026-05-04 05:25 | 15.37621 | 115.99121 | 38945 ft | 509 kts | 46° |
| 2026-05-04 05:25 | 15.42461 | 116.04496 | 38948 ft | 509 kts | 46° |
| 2026-05-04 05:26 | 15.47299 | 116.09872 | 38945 ft | 509 kts | 46° |
| 2026-05-04 05:26 | 15.52102 | 116.15213 | 38944 ft | 508 kts | 46° |
| 2026-05-04 05:28 | 15.71343 | 116.36648 | 38944 ft | 507 kts | 46° |
| 2026-05-04 05:29 | 15.76160 | 116.42024 | 38945 ft | 507 kts | 46° |
| 2026-05-04 05:29 | 15.80957 | 116.47382 | 38945 ft | 506 kts | 45° |
| 2026-05-04 05:31 | 16.00076 | 116.68777 | 38940 ft | 506 kts | 46° |
| 2026-05-04 05:32 | 16.04864 | 116.74145 | 38943 ft | 507 kts | 45° |
| 2026-05-04 05:33 | 16.12049 | 116.82207 | 38945 ft | 507 kts | 46° |
| 2026-05-04 05:33 | 16.16847 | 116.87597 | 38944 ft | 507 kts | 46° |
| 2026-05-04 05:34 | 16.21635 | 116.92979 | 38948 ft | 506 kts | 46° |
| 2026-05-04 05:34 | 16.26420 | 116.98362 | 38942 ft | 506 kts | 46° |
| 2026-05-04 05:35 | 16.31169 | 117.03710 | 38943 ft | 506 kts | 46° |
| 2026-05-04 05:35 | 16.35957 | 117.09104 | 38942 ft | 505 kts | 46° |
| 2026-05-04 05:36 | 16.40730 | 117.14487 | 38942 ft | 505 kts | 46° |
| 2026-05-04 05:36 | 16.45474 | 117.19841 | 38945 ft | 505 kts | 45° |
| 2026-05-04 05:37 | 16.50247 | 117.25230 | 38941 ft | 505 kts | 45° |
| 2026-05-04 05:37 | 16.55007 | 117.30610 | 38936 ft | 505 kts | 46° |
| 2026-05-04 05:38 | 16.62147 | 117.38691 | 38939 ft | 505 kts | 45° |
| 2026-05-04 05:38 | 16.66906 | 117.44082 | 38940 ft | 505 kts | 45° |
| 2026-05-04 05:39 | 16.74048 | 117.52179 | 38938 ft | 505 kts | 45° |
| 2026-05-04 05:40 | 16.81167 | 117.60260 | 38936 ft | 505 kts | 45° |
| 2026-05-04 05:40 | 16.85918 | 117.65658 | 38943 ft | 505 kts | 45° |
| 2026-05-04 05:41 | 16.90683 | 117.71077 | 38935 ft | 505 kts | 45° |
| 2026-05-04 05:41 | 16.95446 | 117.76497 | 38938 ft | 505 kts | 45° |
| 2026-05-04 05:42 | 17.00177 | 117.81885 | 38937 ft | 506 kts | 45° |
| 2026-05-04 05:42 | 17.04938 | 117.87312 | 38931 ft | 506 kts | 45° |
| 2026-05-04 05:43 | 17.09692 | 117.92736 | 38939 ft | 506 kts | 45° |
| 2026-05-04 05:45 | 17.28680 | 118.14442 | 38940 ft | 507 kts | 45° |
| 2026-05-04 05:47 | 17.47689 | 118.36244 | 38937 ft | 508 kts | 45° |
| 2026-05-04 05:47 | 17.52453 | 118.41720 | 38938 ft | 508 kts | 46° |
| 2026-05-04 05:48 | 17.57222 | 118.47205 | 38930 ft | 508 kts | 46° |
| 2026-05-04 05:48 | 17.61965 | 118.52665 | 38920 ft | 508 kts | 46° |
| 2026-05-04 05:49 | 17.66731 | 118.58157 | 38931 ft | 509 kts | 46° |
| 2026-05-04 05:49 | 17.71502 | 118.63660 | 38941 ft | 509 kts | 46° |
| 2026-05-04 05:51 | 17.90510 | 118.85627 | 38943 ft | 509 kts | 46° |
| 2026-05-04 05:52 | 17.95276 | 118.91147 | 38934 ft | 510 kts | 46° |
| 2026-05-04 05:52 | 18.00038 | 118.96667 | 38927 ft | 510 kts | 46° |
| 2026-05-04 05:54 | 18.18283 | 119.17861 | 38925 ft | 511 kts | 46° |
| 2026-05-04 05:55 | 18.23046 | 119.23406 | 38928 ft | 511 kts | 46° |
| 2026-05-04 05:55 | 18.28596 | 119.29874 | 38925 ft | 511 kts | 46° |
| 2026-05-04 05:56 | 18.32595 | 119.34539 | 38926 ft | 512 kts | 46° |
| 2026-05-04 05:56 | 18.37339 | 119.40076 | 38925 ft | 512 kts | 46° |
| 2026-05-04 05:57 | 18.42106 | 119.45646 | 38924 ft | 512 kts | 46° |
| 2026-05-04 05:57 | 18.46884 | 119.51233 | 38925 ft | 513 kts | 46° |
| 2026-05-04 05:58 | 18.51661 | 119.56824 | 38921 ft | 513 kts | 46° |
| 2026-05-04 05:58 | 18.56448 | 119.62431 | 38923 ft | 513 kts | 46° |
| 2026-05-04 05:59 | 18.61190 | 119.67997 | 38925 ft | 514 kts | 46° |
| 2026-05-04 05:59 | 18.65968 | 119.73611 | 38927 ft | 514 kts | 46° |
| 2026-05-04 06:00 | 18.70756 | 119.79228 | 38928 ft | 514 kts | 46° |
| 2026-05-04 06:00 | 18.75536 | 119.84844 | 38926 ft | 514 kts | 46° |
| 2026-05-04 06:01 | 18.80286 | 119.90433 | 38927 ft | 514 kts | 46° |
| 2026-05-04 06:03 | 18.99390 | 120.12968 | 38926 ft | 515 kts | 46° |
| 2026-05-04 06:05 | 19.20881 | 120.38419 | 38934 ft | 516 kts | 46° |
| 2026-05-04 06:06 | 19.25644 | 120.44074 | 38935 ft | 516 kts | 46° |
| 2026-05-04 06:06 | 19.30430 | 120.49762 | 38933 ft | 516 kts | 46° |
| 2026-05-04 06:07 | 19.35207 | 120.55443 | 38935 ft | 516 kts | 47° |
| 2026-05-04 06:07 | 19.40579 | 120.60333 | 38933 ft | 510 kts | 28° |
| 2026-05-04 06:08 | 19.47064 | 120.63119 | 38937 ft | 501 kts | 8° |
| 2026-05-04 06:08 | 19.53957 | 120.63982 | 38937 ft | 498 kts | 1° |
| 2026-05-04 06:09 | 19.60844 | 120.64497 | 38936 ft | 498 kts | 0° |
| 2026-05-04 06:11 | 19.88560 | 120.66679 | 38946 ft | 499 kts | 1° |
| 2026-05-04 06:13 | 20.16226 | 120.68939 | 38954 ft | 499 kts | 1° |
| 2026-05-04 06:14 | 20.40439 | 120.70924 | 38960 ft | 499 kts | 0° |
| 2026-05-04 06:15 | 20.47373 | 120.71493 | 38962 ft | 499 kts | 0° |
| 2026-05-04 06:15 | 20.54261 | 120.72059 | 38965 ft | 499 kts | 0° |
| 2026-05-04 06:16 | 20.61188 | 120.72630 | 38966 ft | 499 kts | 0° |
| 2026-05-04 06:16 | 20.68122 | 120.73201 | 38965 ft | 499 kts | 0° |
| 2026-05-04 06:17 | 20.75022 | 120.73770 | 38965 ft | 499 kts | 0° |
| 2026-05-04 06:17 | 20.81961 | 120.74342 | 38971 ft | 499 kts | 0° |
| 2026-05-04 06:18 | 20.88892 | 120.74915 | 38975 ft | 499 kts | 0° |
| 2026-05-04 06:20 | 21.16574 | 120.77343 | 38977 ft | 500 kts | 0° |
| 2026-05-04 06:21 | 21.33915 | 120.78937 | 38981 ft | 500 kts | 0° |
| 2026-05-04 06:22 | 21.40816 | 120.79569 | 38983 ft | 499 kts | 0° |
| 2026-05-04 06:25 | 21.89285 | 120.83849 | 38999 ft | 494 kts | 352° |
| 2026-05-04 06:26 | 21.95892 | 120.82554 | 39002 ft | 479 kts | 334° |
| 2026-05-04 06:26 | 22.01980 | 120.79658 | 38997 ft | 474 kts | 329° |
| 2026-05-04 06:27 | 22.16754 | 120.71818 | 38994 ft | 474 kts | 328° |
| 2026-05-04 06:28 | 22.22660 | 120.68712 | 38997 ft | 474 kts | 328° |
| 2026-05-04 06:28 | 22.28586 | 120.65602 | 38993 ft | 473 kts | 328° |
| 2026-05-04 06:29 | 22.34524 | 120.62483 | 38990 ft | 473 kts | 328° |
| 2026-05-04 06:29 | 22.40417 | 120.59382 | 38982 ft | 473 kts | 328° |
| 2026-05-04 06:30 | 22.46352 | 120.56256 | 38979 ft | 473 kts | 328° |
| 2026-05-04 06:30 | 22.52241 | 120.53151 | 38977 ft | 473 kts | 328° |
| 2026-05-04 06:31 | 22.58172 | 120.50022 | 38977 ft | 473 kts | 328° |
| 2026-05-04 06:31 | 22.64094 | 120.46893 | 38980 ft | 473 kts | 328° |
| 2026-05-04 06:33 | 22.87746 | 120.34377 | 39000 ft | 473 kts | 328° |
| 2026-05-04 06:34 | 22.93665 | 120.31225 | 39000 ft | 473 kts | 328° |
| 2026-05-04 06:34 | 22.99543 | 120.28090 | 39003 ft | 473 kts | 328° |
| 2026-05-04 06:36 | 23.25463 | 120.24791 | 38989 ft | 514 kts | 12° |
| 2026-05-04 06:37 | 23.31155 | 120.26901 | 38987 ft | 516 kts | 13° |
| 2026-05-04 06:37 | 23.39053 | 120.29855 | 38993 ft | 516 kts | 13° |
| 2026-05-04 06:38 | 23.45828 | 120.32343 | 38994 ft | 516 kts | 12° |
| 2026-05-04 06:40 | 23.71959 | 120.41857 | 38998 ft | 516 kts | 12° |
| 2026-05-04 06:40 | 23.78750 | 120.44325 | 39001 ft | 517 kts | 12° |
| 2026-05-04 06:41 | 23.86735 | 120.47234 | 38998 ft | 517 kts | 12° |
| 2026-05-04 06:41 | 23.93527 | 120.49713 | 38998 ft | 517 kts | 12° |
| 2026-05-04 06:42 | 23.99250 | 120.51815 | 39012 ft | 517 kts | 12° |
| 2026-05-04 06:44 | 24.26509 | 120.61843 | 39019 ft | 518 kts | 11° |
| 2026-05-04 06:44 | 24.33350 | 120.64357 | 39018 ft | 518 kts | 11° |
| 2026-05-04 06:45 | 24.40220 | 120.66887 | 39023 ft | 519 kts | 11° |
| 2026-05-04 06:45 | 24.47063 | 120.69414 | 39022 ft | 519 kts | 11° |
| 2026-05-04 06:46 | 24.53815 | 120.72335 | 39024 ft | 530 kts | 22° |
| 2026-05-04 06:46 | 24.56931 | 120.74579 | 39026 ft | 540 kts | 33° |
| 2026-05-04 06:46 | 24.59650 | 120.77372 | 39031 ft | 546 kts | 42° |
| 2026-05-04 06:48 | 24.79587 | 121.02982 | 39043 ft | 551 kts | 45° |
| 2026-05-04 06:50 | 24.99531 | 121.28685 | 39072 ft | 553 kts | 45° |
| 2026-05-04 06:51 | 25.04483 | 121.35089 | 39074 ft | 553 kts | 45° |
| 2026-05-04 06:51 | 25.09481 | 121.41561 | 39098 ft | 554 kts | 45° |
| 2026-05-04 06:52 | 25.14478 | 121.48042 | 39101 ft | 554 kts | 45° |
| 2026-05-04 06:52 | 25.19972 | 121.53887 | 39103 ft | 543 kts | 31° |
| 2026-05-04 06:53 | 25.26100 | 121.58736 | 39087 ft | 540 kts | 28° |
| 2026-05-04 06:53 | 25.32273 | 121.63418 | 39086 ft | 541 kts | 28° |
| 2026-05-04 06:54 | 25.38504 | 121.68147 | 39082 ft | 542 kts | 28° |
| 2026-05-04 06:54 | 25.44691 | 121.72878 | 39090 ft | 543 kts | 28° |
| 2026-05-04 06:55 | 25.50901 | 121.77648 | 39089 ft | 543 kts | 28° |
| 2026-05-04 06:55 | 25.57114 | 121.82428 | 39098 ft | 543 kts | 28° |
| 2026-05-04 06:57 | 25.82004 | 122.01532 | 39110 ft | 545 kts | 28° |
| 2026-05-04 06:58 | 25.88275 | 122.06298 | 39114 ft | 546 kts | 28° |
| 2026-05-04 06:58 | 25.94508 | 122.11053 | 39114 ft | 547 kts | 28° |
| 2026-05-04 06:59 | 26.00777 | 122.15846 | 39114 ft | 547 kts | 28° |
| 2026-05-04 06:59 | 26.07054 | 122.20652 | 39121 ft | 548 kts | 28° |
| 2026-05-04 07:01 | 26.28932 | 122.37659 | 40256 ft | 543 kts | 28° |
| 2026-05-04 07:01 | 26.32026 | 122.40090 | 40458 ft | 542 kts | 28° |
| 2026-05-04 07:02 | 26.35064 | 122.42475 | 40653 ft | 541 kts | 28° |
| 2026-05-04 07:02 | 26.38148 | 122.44897 | 40838 ft | 541 kts | 28° |
| 2026-05-04 07:02 | 26.41212 | 122.47303 | 41030 ft | 540 kts | 28° |
| 2026-05-04 07:02 | 26.44295 | 122.49725 | 41121 ft | 541 kts | 28° |
| 2026-05-04 07:03 | 26.50452 | 122.54567 | 41138 ft | 540 kts | 28° |
| 2026-05-04 07:03 | 26.56593 | 122.59405 | 41131 ft | 540 kts | 28° |
| 2026-05-04 07:04 | 26.62704 | 122.64224 | 41140 ft | 541 kts | 28° |
| 2026-05-04 07:04 | 26.68856 | 122.69085 | 41135 ft | 541 kts | 28° |
| 2026-05-04 07:05 | 26.75029 | 122.73974 | 41142 ft | 542 kts | 28° |
| 2026-05-04 07:05 | 26.81159 | 122.78821 | 41146 ft | 543 kts | 28° |
| 2026-05-04 07:06 | 26.90414 | 122.86155 | 41143 ft | 543 kts | 28° |
| 2026-05-04 07:07 | 26.96597 | 122.91066 | 41144 ft | 544 kts | 28° |
| 2026-05-04 07:09 | 27.21303 | 123.10790 | 41153 ft | 546 kts | 28° |
| 2026-05-04 07:09 | 27.27454 | 123.15721 | 41156 ft | 546 kts | 28° |
| 2026-05-04 07:10 | 27.33648 | 123.20696 | 41159 ft | 546 kts | 28° |
| 2026-05-04 07:12 | 27.58387 | 123.40635 | 41161 ft | 548 kts | 28° |
| 2026-05-04 07:12 | 27.64593 | 123.45655 | 41162 ft | 548 kts | 28° |
| 2026-05-04 07:13 | 27.70768 | 123.50656 | 41161 ft | 549 kts | 28° |
| 2026-05-04 07:13 | 27.76978 | 123.55694 | 41159 ft | 549 kts | 28° |
| 2026-05-04 07:14 | 27.92523 | 123.68335 | 41162 ft | 551 kts | 28° |
| 2026-05-04 07:15 | 27.98713 | 123.73376 | 41161 ft | 551 kts | 28° |
| 2026-05-04 07:15 | 28.04957 | 123.78424 | 41162 ft | 551 kts | 28° |
| 2026-05-04 07:16 | 28.11206 | 123.83478 | 41162 ft | 551 kts | 28° |
| 2026-05-04 07:16 | 28.17453 | 123.88548 | 41162 ft | 552 kts | 28° |
| 2026-05-04 07:17 | 28.23694 | 123.93624 | 41162 ft | 553 kts | 28° |
| 2026-05-04 07:17 | 28.29879 | 123.98800 | 41154 ft | 559 kts | 34° |
| 2026-05-04 07:18 | 28.32643 | 124.01938 | 41161 ft | 568 kts | 45° |
| 2026-05-04 07:18 | 28.35146 | 124.05444 | 41154 ft | 571 kts | 47° |
| 2026-05-04 07:18 | 28.39943 | 124.12683 | 41156 ft | 573 kts | 49° |
| 2026-05-04 07:19 | 28.44626 | 124.19956 | 41160 ft | 574 kts | 49° |
| 2026-05-04 07:19 | 28.49359 | 124.27276 | 41145 ft | 574 kts | 49° |
| 2026-05-04 07:20 | 28.54112 | 124.34584 | 41167 ft | 574 kts | 49° |
| 2026-05-04 07:20 | 28.58845 | 124.41855 | 41153 ft | 574 kts | 49° |
| 2026-05-04 07:22 | 28.75717 | 124.67221 | 41160 ft | 566 kts | 37° |
| 2026-05-04 07:22 | 28.78733 | 124.70027 | 41157 ft | 553 kts | 25° |
| 2026-05-04 07:23 | 28.82049 | 124.72112 | 41159 ft | 537 kts | 13° |
| 2026-05-04 07:23 | 28.85496 | 124.73685 | 41155 ft | 533 kts | 11° |
| 2026-05-04 07:23 | 28.92488 | 124.76498 | 41157 ft | 532 kts | 8° |
| 2026-05-04 07:24 | 28.99522 | 124.79219 | 41153 ft | 533 kts | 8° |
| 2026-05-04 07:24 | 29.06499 | 124.81962 | 41149 ft | 533 kts | 9° |
| 2026-05-04 07:26 | 29.34557 | 124.93199 | 41153 ft | 535 kts | 9° |
| 2026-05-04 07:27 | 29.41600 | 124.96030 | 41154 ft | 536 kts | 9° |
| 2026-05-04 07:27 | 29.47462 | 124.98389 | 41149 ft | 536 kts | 9° |
| 2026-05-04 07:28 | 29.54506 | 125.01229 | 41151 ft | 537 kts | 9° |
| 2026-05-04 07:28 | 29.61569 | 125.04080 | 41153 ft | 537 kts | 9° |
| 2026-05-04 07:29 | 29.68621 | 125.06931 | 41149 ft | 537 kts | 9° |
| 2026-05-04 07:29 | 29.75636 | 125.09772 | 41154 ft | 538 kts | 9° |
| 2026-05-04 07:30 | 29.82696 | 125.12634 | 41154 ft | 538 kts | 9° |
| 2026-05-04 07:30 | 29.89792 | 125.15515 | 41153 ft | 539 kts | 9° |
| 2026-05-04 07:31 | 29.96862 | 125.18391 | 41148 ft | 539 kts | 9° |
| 2026-05-04 07:33 | 30.25061 | 125.29931 | 41149 ft | 539 kts | 9° |
| 2026-05-04 07:33 | 30.32141 | 125.32840 | 41149 ft | 539 kts | 9° |
| 2026-05-04 07:34 | 30.39223 | 125.35755 | 41145 ft | 539 kts | 9° |
| 2026-05-04 07:34 | 30.46285 | 125.38666 | 41140 ft | 539 kts | 9° |
| 2026-05-04 07:35 | 30.53320 | 125.41570 | 41145 ft | 539 kts | 9° |
| 2026-05-04 07:35 | 30.60398 | 125.44497 | 41145 ft | 540 kts | 9° |
| 2026-05-04 07:36 | 30.67483 | 125.47431 | 41145 ft | 540 kts | 9° |
| 2026-05-04 07:38 | 30.95794 | 125.59201 | 41146 ft | 540 kts | 9° |
| 2026-05-04 07:38 | 31.02853 | 125.62147 | 41144 ft | 540 kts | 9° |
| 2026-05-04 07:39 | 31.09943 | 125.65111 | 41147 ft | 540 kts | 9° |
| 2026-05-04 07:39 | 31.17020 | 125.68074 | 41140 ft | 540 kts | 9° |
| 2026-05-04 07:40 | 31.24053 | 125.71024 | 41141 ft | 540 kts | 9° |
| 2026-05-04 07:40 | 31.31132 | 125.73996 | 41141 ft | 540 kts | 9° |
| 2026-05-04 07:41 | 31.38201 | 125.76970 | 41140 ft | 539 kts | 9° |
| 2026-05-04 07:41 | 31.45273 | 125.79950 | 41142 ft | 539 kts | 9° |
| 2026-05-04 07:42 | 31.52348 | 125.82936 | 41139 ft | 539 kts | 9° |
| 2026-05-04 07:42 | 31.59366 | 125.85903 | 41140 ft | 539 kts | 9° |
| 2026-05-04 07:43 | 31.66463 | 125.88899 | 41138 ft | 539 kts | 9° |
| 2026-05-04 07:43 | 31.73474 | 125.91842 | 41140 ft | 539 kts | 9° |
| 2026-05-04 07:44 | 31.80546 | 125.94821 | 41139 ft | 539 kts | 9° |
| 2026-05-04 07:44 | 31.87602 | 125.97803 | 41136 ft | 539 kts | 9° |
| 2026-05-04 07:45 | 31.94631 | 126.00770 | 41137 ft | 539 kts | 9° |
| 2026-05-04 07:45 | 32.01701 | 126.03762 | 41136 ft | 539 kts | 9° |
| 2026-05-04 07:46 | 32.08750 | 126.06758 | 41135 ft | 539 kts | 10° |
| 2026-05-04 07:46 | 32.15805 | 126.09752 | 41129 ft | 539 kts | 9° |
| 2026-05-04 07:47 | 32.22850 | 126.12733 | 41128 ft | 539 kts | 9° |
| 2026-05-04 07:49 | 32.51050 | 126.24742 | 41123 ft | 539 kts | 10° |
| 2026-05-04 07:49 | 32.58110 | 126.27771 | 41127 ft | 539 kts | 10° |
| 2026-05-04 07:50 | 32.65123 | 126.30780 | 41121 ft | 538 kts | 10° |
| 2026-05-04 07:50 | 32.72182 | 126.33812 | 41127 ft | 538 kts | 10° |
| 2026-05-04 07:51 | 32.79239 | 126.36850 | 41121 ft | 538 kts | 10° |
| 2026-05-04 07:51 | 32.86274 | 126.39884 | 41121 ft | 538 kts | 10° |
| 2026-05-04 07:52 | 32.93309 | 126.42925 | 41120 ft | 537 kts | 11° |
| 2026-05-04 07:52 | 33.00338 | 126.45968 | 41118 ft | 537 kts | 11° |
| 2026-05-04 07:54 | 33.28440 | 126.58068 | 41126 ft | 537 kts | 11° |
| 2026-05-04 07:55 | 33.35465 | 126.61097 | 41124 ft | 535 kts | 10° |
| 2026-05-04 07:55 | 33.39015 | 126.62233 | 41129 ft | 522 kts | 0° |
| 2026-05-04 07:55 | 33.42547 | 126.62828 | 41131 ft | 515 kts | 356° |
| 2026-05-04 07:56 | 33.49661 | 126.63673 | 41130 ft | 513 kts | 354° |
| 2026-05-04 07:56 | 33.56778 | 126.64390 | 41133 ft | 512 kts | 354° |
| 2026-05-04 07:57 | 33.63903 | 126.65114 | 41128 ft | 513 kts | 354° |
| 2026-05-04 07:57 | 33.71009 | 126.65862 | 41125 ft | 513 kts | 355° |
| 2026-05-04 07:58 | 33.78117 | 126.66622 | 41113 ft | 513 kts | 355° |
| 2026-05-04 07:58 | 33.85221 | 126.67383 | 41120 ft | 513 kts | 355° |
| 2026-05-04 07:59 | 33.92285 | 126.68140 | 41115 ft | 512 kts | 355° |
| 2026-05-04 07:59 | 33.99391 | 126.68902 | 41111 ft | 512 kts | 355° |
| 2026-05-04 08:00 | 34.06502 | 126.69666 | 41102 ft | 512 kts | 355° |
| 2026-05-04 08:02 | 34.34895 | 126.72735 | 41099 ft | 512 kts | 355° |
| 2026-05-04 08:02 | 34.41997 | 126.73500 | 41091 ft | 512 kts | 355° |
| 2026-05-04 08:03 | 34.49114 | 126.74270 | 41085 ft | 512 kts | 355° |
| 2026-05-04 08:03 | 34.56224 | 126.75043 | 41089 ft | 512 kts | 355° |
| 2026-05-04 08:04 | 34.63281 | 126.75811 | 41085 ft | 512 kts | 355° |
| 2026-05-04 08:04 | 34.70397 | 126.76588 | 41083 ft | 512 kts | 355° |
| 2026-05-04 08:05 | 34.77507 | 126.77365 | 41087 ft | 512 kts | 355° |
| 2026-05-04 08:05 | 34.84615 | 126.78144 | 41093 ft | 512 kts | 355° |
| 2026-05-04 08:06 | 34.90505 | 126.78789 | 41088 ft | 512 kts | 355° |
| 2026-05-04 08:06 | 34.98759 | 126.79696 | 41084 ft | 512 kts | 355° |
| 2026-05-04 08:08 | 35.27062 | 126.82800 | 41081 ft | 509 kts | 355° |
| 2026-05-04 08:11 | 35.58770 | 126.86268 | 41084 ft | 508 kts | 355° |
| 2026-05-04 08:11 | 35.65831 | 126.87041 | 40670 ft | 507 kts | 355° |
| 2026-05-04 08:11 | 35.69345 | 126.87428 | 40041 ft | 508 kts | 355° |
| 2026-05-04 08:12 | 35.72876 | 126.87814 | 39316 ft | 511 kts | 355° |
| 2026-05-04 08:12 | 35.76425 | 126.88202 | 38584 ft | 514 kts | 355° |
| 2026-05-04 08:12 | 35.79951 | 126.88589 | 37751 ft | 516 kts | 355° |
| 2026-05-04 08:12 | 35.83547 | 126.88987 | 37024 ft | 516 kts | 355° |
| 2026-05-04 08:13 | 35.87127 | 126.89386 | 36334 ft | 515 kts | 356° |
| 2026-05-04 08:13 | 35.90702 | 126.89786 | 35637 ft | 515 kts | 356° |
| 2026-05-04 08:13 | 35.94246 | 126.90185 | 34911 ft | 516 kts | 356° |
| 2026-05-04 08:13 | 35.96668 | 126.90454 | 34370 ft | 518 kts | 356° |
| 2026-05-04 08:14 | 36.00231 | 126.90844 | 33467 ft | 521 kts | 356° |
| 2026-05-04 08:14 | 36.03849 | 126.91240 | 32647 ft | 520 kts | 357° |
| 2026-05-04 08:14 | 36.07445 | 126.91639 | 31910 ft | 516 kts | 358° |
| 2026-05-04 08:16 | 36.31678 | 126.94368 | 27072 ft | 480 kts | 359° |
| 2026-05-04 08:16 | 36.34992 | 126.94740 | 26465 ft | 474 kts | 359° |
| 2026-05-04 08:16 | 36.38253 | 126.95106 | 25875 ft | 468 kts | 359° |
| 2026-05-04 08:17 | 36.41492 | 126.95474 | 25267 ft | 463 kts | 359° |
| 2026-05-04 08:17 | 36.44691 | 126.95831 | 24680 ft | 459 kts | 359° |
| 2026-05-04 08:17 | 36.47850 | 126.96183 | 24082 ft | 454 kts | 359° |
| 2026-05-04 08:17 | 36.50982 | 126.96534 | 23480 ft | 449 kts | 359° |
| 2026-05-04 08:19 | 36.71707 | 126.98832 | 19344 ft | 407 kts | 359° |
| 2026-05-04 08:19 | 36.74486 | 126.98527 | 18762 ft | 397 kts | 344° |
| 2026-05-04 08:20 | 36.77021 | 126.97422 | 18176 ft | 391 kts | 336° |
| 2026-05-04 08:20 | 36.79551 | 126.96070 | 17551 ft | 386 kts | 335° |
| 2026-05-04 08:20 | 36.81978 | 126.94771 | 16981 ft | 380 kts | 336° |
| 2026-05-04 08:20 | 36.84395 | 126.93486 | 16416 ft | 375 kts | 336° |
| 2026-05-04 08:21 | 36.86788 | 126.92217 | 15848 ft | 371 kts | 336° |
| 2026-05-04 08:21 | 36.89149 | 126.90964 | 15282 ft | 367 kts | 336° |
| 2026-05-04 08:21 | 36.91385 | 126.89425 | 14692 ft | 365 kts | 324° |
| 2026-05-04 08:21 | 36.93171 | 126.87184 | 14084 ft | 366 kts | 307° |
| 2026-05-04 08:22 | 36.94315 | 126.84380 | 13438 ft | 369 kts | 290° |
| 2026-05-04 08:22 | 36.94903 | 126.81268 | 12794 ft | 367 kts | 283° |
| 2026-05-04 08:24 | 36.98165 | 126.59926 | 10867 ft | 333 kts | 284° |
| 2026-05-04 08:24 | 36.98699 | 126.57169 | 10677 ft | 318 kts | 292° |
| 2026-05-04 08:24 | 36.99754 | 126.54855 | 10496 ft | 293 kts | 312° |
| 2026-05-04 08:24 | 37.01083 | 126.53086 | 10329 ft | 266 kts | 316° |
| 2026-05-04 08:25 | 37.02385 | 126.51448 | 10158 ft | 271 kts | 316° |
| 2026-05-04 08:25 | 37.03716 | 126.49762 | 9993 ft | 271 kts | 316° |
| 2026-05-04 08:25 | 37.05031 | 126.48083 | 9791 ft | 269 kts | 315° |
| 2026-05-04 08:25 | 37.06340 | 126.46407 | 9631 ft | 268 kts | 315° |
| 2026-05-04 08:26 | 37.07640 | 126.44740 | 9530 ft | 266 kts | 315° |
| 2026-05-04 08:27 | 37.16711 | 126.51678 | 6200 ft | 269 kts | 50° |
| 2026-05-04 08:28 | 37.17792 | 126.53583 | 5953 ft | 267 kts | 50° |
| 2026-05-04 08:28 | 37.18733 | 126.55228 | 5729 ft | 267 kts | 50° |
| 2026-05-04 08:28 | 37.19607 | 126.56767 | 5501 ft | 267 kts | 51° |
| 2026-05-04 08:28 | 37.20626 | 126.58546 | 5282 ft | 267 kts | 48° |
| 2026-05-04 08:29 | 37.21973 | 126.60068 | 5068 ft | 258 kts | 26° |
| 2026-05-04 08:29 | 37.23659 | 126.60701 | 4645 ft | 253 kts | 359° |
| 2026-05-04 08:29 | 37.25355 | 126.60318 | 4390 ft | 246 kts | 337° |
| 2026-05-04 08:31 | 37.35027 | 126.51886 | 2251 ft | 229 kts | 323° |
| 2026-05-04 08:33 | 37.42037 | 126.45645 | 578 ft | 137 kts | 320° |
| 2026-05-04 08:33 | 37.42542 | 126.45199 | 465 ft | 130 kts | 319° |
| 2026-05-04 08:35 | 37.45788 | 126.42438 | 39 ft | 0 kts | 355° |
| 2026-05-04 08:35 | 37.45841 | 126.42433 | 39 ft | 25 kts | 355° |
| 2026-05-04 08:35 | 37.45994 | 126.42392 | 39 ft | 7 kts | 330° |
| 2026-05-04 08:37 | 37.46233 | 126.42726 | 39 ft | 11 kts | 102° |
| 2026-05-04 08:37 | 37.46179 | 126.42804 | 38 ft | 13 kts | 143° |
| 2026-05-04 08:37 | 37.46094 | 126.42879 | 39 ft | 16 kts | 145° |
| 2026-05-04 08:38 | 37.45993 | 126.42968 | 39 ft | 19 kts | 145° |
| 2026-05-04 08:38 | 37.45878 | 126.43073 | 39 ft | 22 kts | 144° |
| 2026-05-04 08:38 | 37.45767 | 126.43172 | 39 ft | 9 kts | 144° |
| 2026-05-04 08:40 | 37.45382 | 126.43514 | 39 ft | 0 kts | 144° |
| 2026-05-04 08:41 | 37.45374 | 126.43522 | 39 ft | 7 kts | 144° |
| 2026-05-04 08:41 | 37.45314 | 126.43583 | 39 ft | 13 kts | 130° |
| 2026-05-04 08:41 | 37.45307 | 126.43696 | 39 ft | 14 kts | 99° |
| 2026-05-04 08:42 | 37.45242 | 126.43792 | 39 ft | 16 kts | 145° |
| 2026-05-04 08:42 | 37.45141 | 126.43882 | 39 ft | 19 kts | 144° |
| 2026-05-04 08:42 | 37.45025 | 126.43983 | 38 ft | 22 kts | 145° |
| 2026-05-04 08:42 | 37.44977 | 126.44043 | 39 ft | 8 kts | 117° |
| 2026-05-04 08:43 | 37.44983 | 126.44110 | 37 ft | 9 kts | 61° |
| 2026-05-04 08:43 | 37.45018 | 126.44189 | 38 ft | 12 kts | 73° |
| 2026-05-04 08:43 | 37.44998 | 126.44290 | 39 ft | 14 kts | 126° |
| 2026-05-04 08:43 | 37.44938 | 126.44392 | 39 ft | 15 kts | 126° |
| 2026-05-04 08:44 | 37.44892 | 126.44474 | 39 ft | 6 kts | 118° |
| 2026-05-04 08:44 | 37.44901 | 126.44515 | 39 ft | 6 kts | 60° |
| 2026-05-04 08:46 | 37.44956 | 126.44575 | 39 ft | 0 kts | 36° |
| 2026-05-04 08:48 | 37.44956 | 126.44576 | 39 ft | 0 kts | 36° |
| 2026-05-04 08:48 | 37.44958 | 126.44578 | 39 ft | 0 kts | 36° |
| 2026-05-04 08:48 | 37.44959 | 126.44578 | 39 ft | 0 kts | 36° |